Time;durP1;ratioP1;P1;durP2;ratioP2;P2;SDS_P1;SDS_P2;PMS_P1;PMS_P2;Temp;Humidity;BMP_temperature;BMP_pressure;BME280_temperature;BME280_humidity;BME280_pressure;Samples;Min_cycle;Max_cycle;Signal;HPM_P1;HPM_P2
2021/05/27 00:01:29;;;;;;;2.47;1.85;;;9.60;99.90;;;;;;5012383;28;20216;-68
2021/05/27 00:03:56;;;;;;;3.38;3.05;;;9.60;99.90;;;;;;5010379;28;20222;-66
2021/05/27 00:06:24;;;;;;;3.00;2.50;;;9.50;99.90;;;;;;5013704;28;20193;-67
2021/05/27 00:08:52;;;;;;;4.47;2.42;;;9.50;99.90;;;;;;5013728;28;20186;-66
2021/05/27 00:11:20;;;;;;;3.05;1.83;;;9.40;99.90;;;;;;5014063;28;20268;-66
2021/05/27 00:13:48;;;;;;;2.40;2.08;;;9.40;99.90;;;;;;5014138;28;20572;-66
2021/05/27 00:16:16;;;;;;;3.40;3.10;;;9.40;99.90;;;;;;5013347;28;20299;-66
2021/05/27 00:18:43;;;;;;;3.78;3.47;;;9.30;99.90;;;;;;5011871;28;20196;-67
2021/05/27 00:21:11;;;;;;;3.88;3.22;;;9.30;99.90;;;;;;5013022;28;20202;-67
2021/05/27 00:23:38;;;;;;;3.67;2.58;;;9.20;99.90;;;;;;5013689;28;20209;-66
2021/05/27 00:26:06;;;;;;;3.60;2.83;;;9.20;99.90;;;;;;5014191;28;20522;-66
2021/05/27 00:28:35;;;;;;;3.55;2.80;;;9.10;99.90;;;;;;5014256;28;20190;-66
2021/05/27 00:31:02;;;;;;;4.00;2.72;;;9.10;99.90;;;;;;5013685;28;20667;-66
2021/05/27 00:33:30;;;;;;;2.65;2.13;;;9.10;99.90;;;;;;5014098;28;20252;-66
2021/05/27 00:35:58;;;;;;;3.85;3.00;;;9.10;99.90;;;;;;5013111;28;20186;-66
2021/05/27 00:38:25;;;;;;;2.58;2.30;;;9.00;99.90;;;;;;5012306;28;20182;-66
2021/05/27 00:40:53;;;;;;;3.60;2.63;;;9.00;99.90;;;;;;5012091;28;20206;-67
2021/05/27 00:43:20;;;;;;;3.05;2.70;;;9.00;99.90;;;;;;5012187;28;20237;-67
2021/05/27 00:45:49;;;;;;;3.13;2.80;;;9.00;99.90;;;;;;5012357;28;20178;-68
2021/05/27 00:51:11;;;;;;;2.95;2.35;;;9.10;99.90;;;;;;5011957;28;20244;-67
2021/05/27 00:53:39;;;;;;;4.30;2.63;;;9.00;99.90;;;;;;5012301;28;20719;-67
2021/05/27 00:56:07;;;;;;;4.70;2.78;;;9.00;99.90;;;;;;5012693;28;20534;-65
2021/05/27 00:58:36;;;;;;;3.55;3.05;;;9.10;99.90;;;;;;5012503;28;20197;-66
2021/05/27 01:01:05;;;;;;;2.92;2.60;;;9.00;99.90;;;;;;5012500;28;20221;-66
2021/05/27 01:03:32;;;;;;;3.47;3.15;;;9.00;99.90;;;;;;5012201;28;20217;-66
2021/05/27 01:06:01;;;;;;;4.93;3.88;;;9.00;99.90;;;;;;5012713;28;20209;-66
2021/05/27 01:08:29;;;;;;;3.95;3.55;;;8.90;99.90;;;;;;5013623;28;20194;-66
2021/05/27 01:10:58;;;;;;;3.80;3.28;;;8.90;99.90;;;;;;5012977;28;20193;-66
2021/05/27 01:13:26;;;;;;;2.80;2.47;;;8.90;99.90;;;;;;5011768;28;20206;-66
2021/05/27 01:15:54;;;;;;;3.05;2.75;;;8.90;99.90;;;;;;5010163;28;20190;-66
2021/05/27 01:18:24;;;;;;;4.32;3.92;;;8.90;99.90;;;;;;5011556;28;20197;-66
2021/05/27 01:20:55;;;;;;;3.33;2.97;;;8.90;99.90;;;;;;5011163;28;20260;-66
2021/05/27 01:23:24;;;;;;;3.00;2.80;;;8.90;99.90;;;;;;5011580;28;20206;-65
2021/05/27 01:25:54;;;;;;;4.53;3.42;;;8.90;99.90;;;;;;5011411;28;20467;-66
2021/05/27 01:28:24;;;;;;;3.75;3.10;;;8.80;99.90;;;;;;5010048;28;20189;-66
2021/05/27 01:30:52;;;;;;;4.22;3.88;;;8.80;99.90;;;;;;5009763;28;20252;-66
2021/05/27 01:33:29;;;;;;;4.38;3.25;;;8.80;99.90;;;;;;5011250;28;20226;-66
2021/05/27 01:35:57;;;;;;;4.05;3.72;;;8.80;99.90;;;;;;5009698;28;20558;-66
2021/05/27 01:38:28;;;;;;;3.33;2.70;;;8.70;99.90;;;;;;5011717;28;20188;-66
2021/05/27 01:40:58;;;;;;;4.05;3.03;;;8.80;99.90;;;;;;5011490;28;20313;-65
2021/05/27 01:43:26;;;;;;;4.05;3.65;;;8.80;99.90;;;;;;5009806;28;20264;-65
2021/05/27 01:45:55;;;;;;;5.95;3.35;;;8.80;99.90;;;;;;5009832;28;20318;-66
2021/05/27 01:48:24;;;;;;;2.53;2.33;;;8.90;99.90;;;;;;5011370;28;20174;-66
2021/05/27 01:50:52;;;;;;;4.00;3.60;;;8.90;99.90;;;;;;5010009;28;20198;-67
2021/05/27 01:53:29;;;;;;;4.03;3.28;;;8.90;99.90;;;;;;5010990;28;20201;-67
2021/05/27 01:56:01;;;;;;;3.88;3.55;;;9.00;99.90;;;;;;5011261;28;20264;-67
2021/05/27 01:58:31;;;;;;;5.72;3.83;;;9.00;99.90;;;;;;5010150;28;20697;-66
2021/05/27 02:00:59;;;;;;;4.30;3.92;;;9.00;99.90;;;;;;5009662;28;20301;-67
2021/05/27 02:03:33;;;;;;;6.05;4.00;;;9.10;99.90;;;;;;5009484;28;20218;-67
2021/05/27 02:06:12;;;;;;;4.05;3.53;;;9.10;99.90;;;;;;5011135;28;20217;-67
2021/05/27 02:09:07;;;;;;;4.53;3.92;;;9.10;99.90;;;;;;5009342;28;20202;-67
2021/05/27 02:11:32;;;;;;;4.85;4.03;;;9.00;99.90;;;;;;5009621;28;20190;-67
2021/05/27 02:14:02;;;;;;;6.55;4.15;;;9.10;99.90;;;;;;5009643;28;20304;-67
2021/05/27 02:16:32;;;;;;;5.75;4.45;;;9.20;99.90;;;;;;5009734;28;20213;-66
2021/05/27 02:19:00;;;;;;;4.10;3.70;;;9.20;99.90;;;;;;5009490;28;20202;-68
2021/05/27 02:21:28;;;;;;;4.07;3.58;;;9.30;99.90;;;;;;5011137;28;20206;-66
2021/05/27 02:24:00;;;;;;;4.28;3.28;;;9.40;99.90;;;;;;5009908;28;20252;-66
2021/05/27 02:26:29;;;;;;;8.75;3.85;;;9.30;99.90;;;;;;5011780;28;20665;-67
2021/05/27 02:29:03;;;;;;;4.88;3.30;;;9.40;99.90;;;;;;5012063;28;20197;-66
2021/05/27 02:31:35;;;;;;;3.33;3.05;;;9.40;99.90;;;;;;5009519;28;20210;-66
2021/05/27 02:34:04;;;;;;;3.70;3.38;;;9.40;99.90;;;;;;5010734;28;20279;-66
2021/05/27 02:36:32;;;;;;;6.25;4.15;;;9.40;99.90;;;;;;5010529;28;20198;-67
2021/05/27 02:39:00;;;;;;;4.65;4.25;;;9.40;99.90;;;;;;5010563;28;20186;-66
2021/05/27 02:41:38;;;;;;;4.95;4.25;;;9.40;99.90;;;;;;5010809;28;20214;-65
2021/05/27 02:44:06;;;;;;;5.95;4.63;;;9.50;99.90;;;;;;5010408;28;20205;-66
2021/05/27 02:46:40;;;;;;;5.20;4.60;;;9.50;99.90;;;;;;5009056;28;20288;-65
2021/05/27 02:49:09;;;;;;;6.00;4.63;;;9.60;99.90;;;;;;5010381;28;20221;-68
2021/05/27 02:51:40;;;;;;;7.00;4.75;;;9.60;99.90;;;;;;5009034;28;20185;-66
2021/05/27 02:54:10;;;;;;;5.25;4.53;;;9.60;99.90;;;;;;5009209;28;20698;-67
2021/05/27 02:56:40;;;;;;;5.60;5.10;;;9.70;99.90;;;;;;5009137;28;20285;-66
2021/05/27 02:59:09;;;;;;;6.88;5.22;;;9.80;99.90;;;;;;5009085;28;20226;-66
2021/05/27 03:01:39;;;;;;;8.57;5.50;;;9.80;99.90;;;;;;5008780;28;20256;-66
2021/05/27 03:04:07;;;;;;;7.63;4.95;;;9.80;99.90;;;;;;5022652;23;20226;-65
2021/05/27 03:06:36;;;;;;;5.95;5.35;;;9.90;99.90;;;;;;5006271;28;20194;-66
2021/05/27 03:09:05;;;;;;;6.55;5.45;;;9.90;99.90;;;;;;4990606;28;20258;-68
2021/05/27 03:11:33;;;;;;;5.90;5.20;;;9.90;99.90;;;;;;4990428;28;20182;-66
2021/05/27 03:14:04;;;;;;;4.68;4.15;;;9.70;99.90;;;;;;5001137;28;20215;-66
2021/05/27 03:16:46;;;;;;;5.70;4.70;;;9.60;99.90;;;;;;4990611;28;20581;-66
2021/05/27 03:19:14;;;;;;;6.85;5.07;;;9.50;99.90;;;;;;4990363;28;20191;-68
2021/05/27 03:21:42;;;;;;;5.15;4.68;;;9.50;99.90;;;;;;4992566;28;20619;-67
2021/05/27 03:24:14;;;;;;;6.03;5.38;;;9.40;99.90;;;;;;4992672;28;20215;-67
2021/05/27 03:26:43;;;;;;;5.72;5.10;;;9.40;99.90;;;;;;4994006;28;20175;-67
2021/05/27 03:29:13;;;;;;;7.45;4.47;;;9.40;99.90;;;;;;5009076;28;20194;-67
2021/05/27 03:31:42;;;;;;;6.30;5.40;;;9.60;99.90;;;;;;4993775;28;20206;-67
2021/05/27 03:34:10;;;;;;;6.85;5.13;;;9.80;99.90;;;;;;4994350;28;20213;-67
2021/05/27 03:36:38;;;;;;;5.50;4.90;;;10.00;99.90;;;;;;4993917;28;20207;-67
2021/05/27 03:39:08;;;;;;;6.28;4.60;;;10.20;99.90;;;;;;4993661;28;20194;-67
2021/05/27 03:41:36;;;;;;;6.40;5.80;;;10.40;99.90;;;;;;4992099;28;20202;-67
2021/05/27 03:44:09;;;;;;;6.30;5.70;;;10.60;99.90;;;;;;4993445;28;20289;-66
2021/05/27 03:46:42;;;;;;;4.70;3.97;;;10.60;99.90;;;;;;4992372;28;20187;-66
2021/05/27 03:49:09;;;;;;;5.00;4.53;;;10.70;99.90;;;;;;4992563;28;20198;-66
2021/05/27 03:51:37;;;;;;;6.43;5.17;;;10.70;99.90;;;;;;4993410;28;20258;-66
2021/05/27 03:54:06;;;;;;;4.22;3.83;;;10.70;99.90;;;;;;4993623;28;20525;-67
2021/05/27 03:56:35;;;;;;;3.92;3.63;;;10.60;99.90;;;;;;4992099;28;20206;-67
2021/05/27 04:01:59;;;;;;;5.72;5.22;;;10.60;99.90;;;;;;4992943;28;20591;-68
2021/05/27 04:07:25;;;;;;;4.55;3.35;;;10.50;99.90;;;;;;4993517;28;20298;-68
2021/05/27 04:09:52;;;;;;;6.20;4.55;;;10.50;99.90;;;;;;4993326;28;20273;-67
2021/05/27 04:17:58;;;;;;;4.47;3.87;;;10.70;99.90;;;;;;4992053;28;20206;-67
2021/05/27 04:20:27;;;;;;;4.68;3.95;;;10.70;99.90;;;;;;4992902;28;20853;-68
2021/05/27 04:22:56;;;;;;;4.95;4.45;;;10.70;99.90;;;;;;4992853;28;20226;-67
2021/05/27 04:25:25;;;;;;;4.68;4.15;;;10.70;99.90;;;;;;4993662;28;20298;-68
2021/05/27 04:27:54;;;;;;;5.35;4.70;;;10.70;99.90;;;;;;4993764;28;20576;-67
2021/05/27 04:30:23;;;;;;;4.70;4.30;;;10.80;99.90;;;;;;4993322;28;20191;-67
2021/05/27 04:32:56;;;;;;;5.60;4.50;;;10.80;99.90;;;;;;4992231;28;20417;-67
2021/05/27 04:35:35;;;;;;;5.55;5.05;;;10.90;99.90;;;;;;4993634;28;20395;-67
2021/05/27 04:38:05;;;;;;;5.47;4.97;;;11.00;99.90;;;;;;4992458;28;20258;-67
2021/05/27 04:40:34;;;;;;;4.87;4.17;;;11.10;99.90;;;;;;4992402;28;20454;-67
2021/05/27 04:43:02;;;;;;;5.53;4.70;;;11.10;99.90;;;;;;4992089;28;20473;-67
2021/05/27 04:45:30;;;;;;;5.53;4.83;;;11.20;99.90;;;;;;4992373;28;20414;-67
2021/05/27 04:47:58;;;;;;;9.73;4.40;;;11.20;99.90;;;;;;4992308;28;20418;-67
2021/05/27 04:50:26;;;;;;;4.13;3.80;;;11.20;99.90;;;;;;4992467;28;20467;-67
2021/05/27 04:52:54;;;;;;;6.37;4.40;;;11.30;99.90;;;;;;4991998;28;20438;-68
2021/05/27 04:55:22;;;;;;;5.00;4.50;;;11.20;99.90;;;;;;4992235;28;20469;-66
2021/05/27 04:57:50;;;;;;;4.13;3.70;;;11.30;99.90;;;;;;4992574;28;20384;-68
2021/05/27 05:00:19;;;;;;;5.10;3.70;;;11.30;99.90;;;;;;5007265;28;20524;-67
2021/05/27 05:02:50;;;;;;;6.03;5.13;;;11.30;99.90;;;;;;4991778;28;20868;-67
2021/05/27 05:05:17;;;;;;;6.10;4.67;;;11.30;99.90;;;;;;4991902;28;20468;-67
2021/05/27 05:07:45;;;;;;;5.50;4.87;;;11.50;99.90;;;;;;4991908;28;20414;-68
2021/05/27 05:10:14;;;;;;;5.00;4.27;;;11.80;99.90;;;;;;4991995;28;21000;-67
2021/05/27 05:12:45;;;;;;;3.53;2.80;;;12.10;99.90;;;;;;4991587;28;20442;-66
2021/05/27 05:15:15;;;;;;;5.73;3.53;;;12.20;99.90;;;;;;4991679;28;20520;-67
2021/05/27 05:17:43;;;;;;;4.70;3.60;;;12.20;99.90;;;;;;4992027;28;20445;-67
2021/05/27 05:20:12;;;;;;;3.40;3.10;;;12.40;99.90;;;;;;4991629;28;20446;-66
2021/05/27 05:22:39;;;;;;;2.87;2.57;;;12.20;99.90;;;;;;4991924;28;21132;-67
2021/05/27 05:25:08;;;;;;;3.60;3.20;;;12.30;99.90;;;;;;4992013;28;20921;-67
2021/05/27 05:27:36;;;;;;;6.87;2.90;;;13.00;99.90;;;;;;4991901;28;20385;-65
2021/05/27 05:30:06;;;;;;;10.73;3.27;;;14.00;99.90;;;;;;4991763;28;20413;-67
2021/05/27 05:32:34;;;;;;;4.57;2.60;;;14.30;99.90;;;;;;4991598;28;20424;-67
2021/05/27 05:35:03;;;;;;;3.67;3.33;;;14.10;99.90;;;;;;5006678;28;20441;-67
2021/05/27 05:37:31;;;;;;;3.07;2.60;;;13.80;99.90;;;;;;4991834;28;20430;-67
2021/05/27 05:39:59;;;;;;;3.20;2.90;;;13.60;99.90;;;;;;4992098;28;20926;-67
2021/05/27 05:42:28;;;;;;;3.53;2.77;;;13.30;99.90;;;;;;4990077;28;20512;-67
2021/05/27 05:44:57;;;;;;;3.93;2.77;;;13.20;99.90;;;;;;4993270;28;20380;-66
2021/05/27 05:47:25;;;;;;;4.67;2.97;;;12.90;99.90;;;;;;5011765;28;20412;-67
2021/05/27 05:49:52;;;;;;;2.60;2.20;;;13.10;99.90;;;;;;5011129;28;20761;-67
2021/05/27 05:52:20;;;;;;;3.33;2.47;;;13.20;99.90;;;;;;5011140;28;20841;-66
2021/05/27 05:54:48;;;;;;;2.50;2.30;;;13.50;99.90;;;;;;5011371;28;20390;-67
2021/05/27 05:57:19;;;;;;;2.73;2.53;;;13.70;99.90;;;;;;5010376;28;20817;-67
2021/05/27 05:59:47;;;;;;;3.37;2.90;;;13.90;99.90;;;;;;5011004;28;20405;-66
2021/05/27 06:02:16;;;;;;;2.27;2.17;;;13.90;99.90;;;;;;5011028;28;20415;-67
2021/05/27 06:04:44;;;;;;;3.03;2.60;;;13.80;99.90;;;;;;5025540;28;20833;-67
2021/05/27 06:07:42;;;;;;;2.10;1.90;;;13.70;99.90;;;;;;5009577;28;20428;-66
2021/05/27 06:10:11;;;;;;;2.50;1.97;;;13.60;99.90;;;;;;5010559;28;20392;-66
2021/05/27 06:12:39;;;;;;;2.30;2.10;;;13.60;99.90;;;;;;5008937;28;20467;-65
2021/05/27 06:15:08;;;;;;;2.10;1.90;;;13.80;99.90;;;;;;5010193;28;20417;-67
2021/05/27 06:17:37;;;;;;;2.10;1.80;;;14.00;99.90;;;;;;5010702;28;20404;-67
2021/05/27 06:20:06;;;;;;;2.83;2.40;;;14.00;99.90;;;;;;5010981;28;20880;-67
2021/05/27 06:22:37;;;;;;;2.47;2.27;;;14.00;99.90;;;;;;5009500;28;20478;-67
2021/05/27 06:25:10;;;;;;;3.60;2.90;;;13.90;99.90;;;;;;5025339;28;20404;-67
2021/05/27 06:27:38;;;;;;;2.13;1.93;;;13.90;99.90;;;;;;5011134;28;20450;-70
2021/05/27 06:30:08;;;;;;;2.57;2.37;;;13.80;99.90;;;;;;5010741;28;20499;-68
2021/05/27 06:32:37;;;;;;;2.87;2.17;;;13.70;99.90;;;;;;5010899;28;20447;-68
2021/05/27 06:35:07;;;;;;;3.13;2.67;;;14.00;99.90;;;;;;5010997;28;20402;-69
2021/05/27 06:37:37;;;;;;;2.60;2.10;;;14.00;99.90;;;;;;5011021;28;20975;-69
2021/05/27 06:40:07;;;;;;;3.20;2.90;;;14.10;99.90;;;;;;5010810;28;20413;-69
2021/05/27 06:42:35;;;;;;;2.90;2.27;;;13.90;99.90;;;;;;5010879;28;20426;-68
2021/05/27 06:45:04;;;;;;;2.40;2.00;;;13.90;99.90;;;;;;5026349;28;20565;-69
2021/05/27 06:47:32;;;;;;;1.93;1.73;;;14.00;99.90;;;;;;5010894;28;20424;-69
2021/05/27 06:50:02;;;;;;;7.13;4.63;;;14.00;99.90;;;;;;5010834;28;20974;-69
2021/05/27 06:52:30;;;;;;;2.83;2.53;;;14.10;99.90;;;;;;5010546;28;20528;-69
2021/05/27 06:54:58;;;;;;;2.60;2.40;;;14.00;99.90;;;;;;5010563;28;20415;-69
2021/05/27 06:57:26;;;;;;;3.00;2.40;;;14.10;99.90;;;;;;5014318;28;20392;-68
2021/05/27 06:59:53;;;;;;;2.90;2.70;;;13.90;99.90;;;;;;5014481;28;20386;-69
2021/05/27 07:02:21;;;;;;;3.57;2.40;;;13.90;99.90;;;;;;5014304;28;20420;-69
2021/05/27 07:04:48;;;;;;;3.50;2.83;;;13.90;99.90;;;;;;5014181;28;20499;-68
2021/05/27 07:07:17;;;;;;;3.90;2.80;;;14.00;99.90;;;;;;5014373;28;20918;-69
2021/05/27 07:09:45;;;;;;;2.87;2.20;;;14.00;99.90;;;;;;5014018;28;20425;-69
2021/05/27 07:12:12;;;;;;;3.73;2.43;;;14.30;99.90;;;;;;5014416;28;20395;-68
2021/05/27 07:14:40;;;;;;;2.33;2.13;;;14.40;99.90;;;;;;5012827;28;20392;-67
2021/05/27 07:17:08;;;;;;;2.93;2.23;;;14.60;99.90;;;;;;4994837;28;20984;-66
2021/05/27 07:19:36;;;;;;;2.10;1.90;;;14.70;99.90;;;;;;4994454;28;20457;-67
2021/05/27 07:22:04;;;;;;;2.50;2.10;;;14.50;99.90;;;;;;4994844;28;20393;-67
2021/05/27 07:24:32;;;;;;;2.10;2.00;;;14.40;99.90;;;;;;4992981;28;20970;-68
2021/05/27 07:27:00;;;;;;;3.87;2.07;;;14.10;99.90;;;;;;4994558;28;20462;-69
2021/05/27 07:29:29;;;;;;;2.40;1.97;;;13.80;99.90;;;;;;4994729;28;20388;-66
2021/05/27 07:31:57;;;;;;;2.17;1.87;;;13.50;99.90;;;;;;4994353;28;20920;-70
2021/05/27 07:34:24;;;;;;;2.30;1.77;;;13.50;99.90;;;;;;4993734;28;20429;-67
2021/05/27 07:36:52;;;;;;;2.23;2.03;;;13.40;99.90;;;;;;4994004;28;20415;-69
2021/05/27 07:39:20;;;;;;;4.30;1.90;;;13.40;99.90;;;;;;4994475;28;20433;-68
2021/05/27 07:41:48;;;;;;;2.60;2.27;;;13.60;99.90;;;;;;4993749;28;20396;-68
2021/05/27 07:44:16;;;;;;;5.00;1.83;;;14.00;99.90;;;;;;5008843;28;20448;-68
2021/05/27 07:46:44;;;;;;;1.87;1.77;;;14.50;99.90;;;;;;4993551;28;20435;-69
2021/05/27 07:49:11;;;;;;;1.47;1.37;;;15.00;99.90;;;;;;4993891;28;20392;-70
2021/05/27 07:51:39;;;;;;;1.60;1.40;;;15.10;99.90;;;;;;4993728;28;20384;-70
2021/05/27 07:54:07;;;;;;;2.10;1.30;;;15.40;99.90;;;;;;4994070;28;20445;-67
2021/05/27 07:56:34;;;;;;;1.17;1.07;;;15.70;99.90;;;;;;4993945;28;20831;-69
2021/05/27 07:59:03;;;;;;;2.07;1.87;;;15.30;99.90;;;;;;4993515;28;20388;-68
2021/05/27 08:01:31;;;;;;;1.70;1.60;;;15.00;99.90;;;;;;5007859;28;20429;-68
2021/05/27 08:03:58;;;;;;;2.17;1.50;;;14.90;99.90;;;;;;4993026;28;20436;-68
2021/05/27 08:06:26;;;;;;;3.10;2.73;;;14.60;99.90;;;;;;4993241;28;20426;-66
2021/05/27 08:08:54;;;;;;;2.23;1.63;;;14.40;99.90;;;;;;4993181;28;20512;-68
2021/05/27 08:11:22;;;;;;;2.20;1.40;;;14.60;99.90;;;;;;4993054;28;20484;-67
2021/05/27 08:13:50;;;;;;;1.70;1.40;;;14.40;99.90;;;;;;4992916;28;20417;-67
2021/05/27 08:16:18;;;;;;;1.80;1.30;;;14.30;99.90;;;;;;4992823;28;20405;-68
2021/05/27 08:18:46;;;;;;;3.07;1.43;;;14.40;99.90;;;;;;4992834;28;20388;-67
2021/05/27 08:21:14;;;;;;;1.97;1.40;;;14.70;99.90;;;;;;4992600;28;20430;-68
2021/05/27 08:23:41;;;;;;;2.07;1.47;;;14.90;99.90;;;;;;4992406;28;20444;-68
2021/05/27 08:26:09;;;;;;;1.47;1.27;;;15.10;99.90;;;;;;4993115;28;20901;-67
2021/05/27 08:28:37;;;;;;;2.20;1.67;;;15.10;99.90;;;;;;4992960;28;20415;-67
2021/05/27 08:31:04;;;;;;;1.50;1.10;;;15.00;99.90;;;;;;4992019;28;20404;-70
2021/05/27 08:33:33;;;;;;;2.23;1.47;;;14.90;99.90;;;;;;4992469;28;20453;-68
2021/05/27 08:36:01;;;;;;;1.80;1.60;;;14.80;99.90;;;;;;4992834;28;20741;-67
2021/05/27 08:38:29;;;;;;;3.20;1.80;;;14.90;99.90;;;;;;4992432;28;20419;-67
2021/05/27 08:40:56;;;;;;;2.80;2.20;;;14.70;99.90;;;;;;4992248;28;20422;-68
2021/05/27 08:43:25;;;;;;;4.77;2.13;;;14.20;99.90;;;;;;4992271;28;20975;-66
2021/05/27 08:45:53;;;;;;;2.20;1.73;;;13.60;99.90;;;;;;4992359;28;20430;-66
2021/05/27 08:48:21;;;;;;;1.63;1.43;;;13.30;99.90;;;;;;4993111;28;20926;-68
2021/05/27 08:50:51;;;;;;;2.50;2.00;;;13.00;99.90;;;;;;4992098;28;20426;-67
2021/05/27 08:53:20;;;;;;;3.03;1.97;;;13.00;99.90;;;;;;4992418;28;20445;-66
2021/05/27 08:55:48;;;;;;;3.77;1.70;;;13.10;99.90;;;;;;4992480;28;20384;-66
2021/05/27 08:58:17;;;;;;;7.60;4.13;;;13.30;99.90;;;;;;4992346;28;20389;-67
2021/05/27 09:00:45;;;;;;;5.30;2.67;;;13.60;99.90;;;;;;4991965;28;20400;-67
2021/05/27 09:03:15;;;;;;;2.07;1.97;;;13.70;99.90;;;;;;4991327;28;20444;-66
2021/05/27 09:05:42;;;;;;;4.73;2.87;;;13.70;99.90;;;;;;5038802;23;20459;-78
2021/05/27 09:08:27;;;;;;;9.00;5.43;;;13.70;99.90;;;;;;4999519;28;20471;-77
2021/05/27 09:11:01;;;;;;;2.70;1.77;;;13.80;99.90;;;;;;5015928;28;20387;-78
2021/05/27 09:13:29;;;;;;;1.83;1.73;;;13.80;99.90;;;;;;5016671;28;20419;-78
2021/05/27 09:16:07;;;;;;;3.00;2.70;;;13.80;99.90;;;;;;5017717;28;20415;-78
2021/05/27 09:18:36;;;;;;;2.00;1.80;;;13.70;99.90;;;;;;5016131;28;20929;-78
2021/05/27 09:21:05;;;;;;;3.10;2.63;;;13.60;99.90;;;;;;5015452;28;20485;-78
2021/05/27 09:23:35;;;;;;;2.53;1.80;;;13.70;99.90;;;;;;5020875;28;20439;-78
2021/05/27 09:26:08;;;;;;;2.63;2.20;;;13.60;99.90;;;;;;5021853;28;20761;-78
2021/05/27 09:28:36;;;;;;;2.90;2.53;;;13.60;99.90;;;;;;5016164;28;20425;-77
2021/05/27 09:31:05;;;;;;;3.50;2.63;;;13.50;99.90;;;;;;5023438;28;20456;-78
2021/05/27 09:33:35;;;;;;;2.43;2.23;;;13.80;99.90;;;;;;5013319;28;20483;-78
2021/05/27 09:36:06;;;;;;;2.50;2.10;;;14.00;99.90;;;;;;5026907;28;20428;-78
2021/05/27 09:38:36;;;;;;;3.30;2.20;;;14.50;99.90;;;;;;5031112;28;20423;-78
2021/05/27 09:41:17;;;;;;;2.43;2.00;;;15.10;99.90;;;;;;5028753;28;20415;-77
2021/05/27 09:43:48;;;;;;;8.00;2.90;;;15.90;99.90;;;;;;5029058;28;20442;-78
2021/05/27 09:46:17;;;;;;;2.50;2.30;;;16.50;99.90;;;;;;5022900;28;20411;-77
2021/05/27 09:48:45;;;;;;;2.10;1.90;;;17.10;99.90;;;;;;5020804;28;20425;-77
2021/05/27 09:51:25;;;;;;;2.30;1.70;;;17.20;99.90;;;;;;5021296;28;20807;-77
2021/05/27 09:53:56;;;;;;;5.70;1.60;;;16.90;99.90;;;;;;5019869;28;20398;-78
2021/05/27 09:56:35;;;;;;;5.97;2.13;;;16.70;99.90;;;;;;5021449;28;20403;-79
2021/05/27 09:59:08;;;;;;;1.40;1.23;;;16.30;99.90;;;;;;5015242;28;20864;-77
2021/05/27 10:01:37;;;;;;;3.20;1.23;;;16.10;99.90;;;;;;5015815;28;20400;-78
2021/05/27 10:04:11;;;;;;;5.60;1.70;;;16.20;99.90;;;;;;5017182;28;20454;-78
2021/05/27 10:06:39;;;;;;;2.00;1.20;;;16.20;99.90;;;;;;5015862;28;20427;-77
2021/05/27 10:09:09;;;;;;;2.63;1.10;;;16.40;99.90;;;;;;5013263;28;20426;-77
2021/05/27 10:11:38;;;;;;;1.27;0.87;;;16.60;99.90;;;;;;5014116;28;20454;-77
2021/05/27 10:14:07;;;;;;;1.10;0.90;;;16.80;99.90;;;;;;5014970;28;20413;-77
2021/05/27 10:16:36;;;;;;;1.43;1.23;;;16.90;99.90;;;;;;5019701;28;20429;-78
2021/05/27 10:19:05;;;;;;;1.00;0.60;;;17.00;99.90;;;;;;5019650;28;20952;-78
2021/05/27 10:21:32;;;;;;;1.20;0.73;;;17.20;99.90;;;;;;5038481;28;20435;-77
2021/05/27 10:24:00;;;;;;;2.97;1.07;;;16.90;99.90;;;;;;5037212;28;20453;-78
2021/05/27 10:26:29;;;;;;;1.30;0.70;;;16.60;99.90;;;;;;5045488;28;20427;-76
2021/05/27 10:29:20;;;;;;;2.10;1.00;;;17.00;99.90;;;;;;5017144;28;20430;-78
2021/05/27 10:31:48;;;;;;;1.80;0.80;;;17.70;99.90;;;;;;5031839;28;20392;-77
2021/05/27 10:34:41;;;;;;;1.73;1.10;;;18.20;99.90;;;;;;5023275;28;20395;-78
2021/05/27 10:37:09;;;;;;;1.87;1.10;;;18.10;99.90;;;;;;5024744;28;20499;-78
2021/05/27 10:39:39;;;;;;;2.63;1.03;;;17.70;99.90;;;;;;5007513;28;20986;-78
2021/05/27 10:42:09;;;;;;;2.90;1.10;;;17.60;99.90;;;;;;5006809;28;20436;-78
2021/05/27 10:45:08;;;;;;;1.63;1.10;;;17.60;99.90;;;;;;5027482;28;20447;-78
2021/05/27 10:47:36;;;;;;;1.33;0.80;;;17.60;99.90;;;;;;5030154;28;20490;-79
2021/05/27 10:50:06;;;;;;;1.97;1.00;;;17.40;99.90;;;;;;5031003;28;20407;-76
2021/05/27 10:52:44;;;;;;;1.10;0.80;;;17.50;99.90;;;;;;5023408;28;20428;-79
2021/05/27 10:55:54;;;;;;;2.10;1.27;;;17.70;99.90;;;;;;5020214;28;20415;-79
2021/05/27 10:59:11;;;;;;;1.00;0.80;;;18.00;99.90;;;;;;5020267;28;20442;-78
2021/05/27 11:02:00;;;;;;;1.70;1.10;;;18.20;99.90;;;;;;5007926;28;20435;-77
2021/05/27 11:04:31;;;;;;;2.10;0.73;;;18.10;99.90;;;;;;5018860;28;20543;-78
2021/05/27 11:07:17;;;;;;;1.40;1.07;;;18.10;99.90;;;;;;5019243;28;20746;-79
2021/05/27 11:09:46;;;;;;;1.67;1.20;;;18.20;99.90;;;;;;5002727;28;20414;-80
2021/05/27 11:12:33;;;;;;;1.13;0.70;;;18.20;99.90;;;;;;5003860;28;20411;-78
2021/05/27 11:15:16;;;;;;;1.27;1.17;;;18.30;99.90;;;;;;5033265;28;20523;-78
2021/05/27 11:18:03;;;;;;;1.20;0.77;;;18.20;99.90;;;;;;5035377;28;20403;-78
2021/05/27 11:20:31;;;;;;;1.30;0.80;;;17.80;99.90;;;;;;5037162;28;20420;-78
2021/05/27 11:23:20;;;;;;;1.90;0.80;;;17.40;99.90;;;;;;5014454;28;20530;-78
2021/05/27 11:25:47;;;;;;;1.87;0.93;;;17.60;99.90;;;;;;5021574;28;20873;-78
2021/05/27 11:28:29;;;;;;;2.30;0.90;;;18.10;99.90;;;;;;5020350;28;20436;-78
2021/05/27 11:30:58;;;;;;;2.00;1.00;;;18.40;99.90;;;;;;5020625;28;20399;-78
2021/05/27 11:33:35;;;;;;;1.30;0.80;;;18.60;99.90;;;;;;5020383;28;20504;-77
2021/05/27 11:36:06;;;;;;;1.30;0.80;;;18.90;99.90;;;;;;5018514;28;20463;-77
2021/05/27 11:38:35;;;;;;;1.87;1.20;;;18.70;99.90;;;;;;5018996;28;20444;-77
2021/05/27 11:41:05;;;;;;;1.97;0.80;;;18.70;99.90;;;;;;5018404;28;20419;-77
2021/05/27 11:43:34;;;;;;;1.07;0.70;;;18.40;99.90;;;;;;5019775;28;20399;-77
2021/05/27 11:46:06;;;;;;;1.00;0.80;;;18.10;99.90;;;;;;5020041;28;20551;-77
2021/05/27 11:48:38;;;;;;;1.07;0.80;;;18.00;99.90;;;;;;5018269;28;20424;-79
2021/05/27 11:51:11;;;;;;;1.37;0.70;;;18.40;99.90;;;;;;5019710;28;20444;-78
2021/05/27 11:53:46;;;;;;;1.30;0.90;;;18.20;99.90;;;;;;5020439;28;20480;-77
2021/05/27 11:56:26;;;;;;;1.20;0.73;;;18.00;99.90;;;;;;5023012;28;20444;-77
2021/05/27 11:58:56;;;;;;;1.40;0.90;;;18.00;99.90;;;;;;5022940;28;20783;-78
2021/05/27 12:01:26;;;;;;;1.00;0.70;;;18.20;99.90;;;;;;5029539;28;20432;-78
2021/05/27 12:04:06;;;;;;;3.97;2.57;;;17.80;99.90;;;;;;5033810;28;20376;-78
2021/05/27 12:06:54;;;;;;;1.47;1.27;;;17.40;99.90;;;;;;5033829;28;20429;-77
2021/05/27 12:09:31;;;;;;;2.30;0.97;;;17.00;99.90;;;;;;5031490;28;20477;-78
2021/05/27 12:12:13;;;;;;;3.23;1.43;;;17.20;99.90;;;;;;5022838;28;20491;-77
2021/05/27 12:14:43;;;;;;;2.07;0.90;;;17.20;99.90;;;;;;5021500;28;20414;-77
2021/05/27 12:17:22;;;;;;;1.10;0.70;;;17.30;99.90;;;;;;5021410;28;20414;-77
2021/05/27 12:19:53;;;;;;;1.00;0.80;;;17.20;99.90;;;;;;5018071;28;20436;-77
2021/05/27 12:22:21;;;;;;;1.23;0.80;;;17.00;99.90;;;;;;5049884;28;20441;-77
2021/05/27 12:25:05;;;;;;;1.20;0.97;;;17.00;99.90;;;;;;5046378;28;20464;-79
2021/05/27 12:27:40;;;;;;;1.53;1.10;;;16.80;99.90;;;;;;5028574;28;20411;-79
2021/05/27 12:30:10;;;;;;;1.20;0.80;;;16.60;99.90;;;;;;5045866;28;20382;-79
2021/05/27 12:32:42;;;;;;;1.30;0.83;;;16.70;99.90;;;;;;5031099;28;20399;-78
2021/05/27 12:35:15;;;;;;;1.37;0.90;;;17.00;99.90;;;;;;5046284;28;20414;-78
2021/05/27 12:37:47;;;;;;;1.00;0.67;;;17.30;99.90;;;;;;5043942;28;20482;-78
2021/05/27 12:40:24;;;;;;;2.10;0.90;;;17.90;99.90;;;;;;5039440;28;20384;-78
2021/05/27 12:42:53;;;;;;;1.73;1.20;;;18.00;99.90;;;;;;5039647;28;20540;-79
2021/05/27 12:45:30;;;;;;;1.20;0.70;;;18.40;99.90;;;;;;5037623;28;20442;-78
2021/05/27 12:48:10;;;;;;;2.63;0.70;;;18.40;99.90;;;;;;5038643;28;20414;-79
2021/05/27 12:50:41;;;;;;;1.20;0.80;;;18.40;99.90;;;;;;5037480;28;20412;-77
2021/05/27 12:53:22;;;;;;;1.60;1.37;;;17.80;99.90;;;;;;5038321;28;20413;-77
2021/05/27 12:55:50;;;;;;;1.10;0.80;;;17.20;99.90;;;;;;5039839;28;20443;-78
2021/05/27 12:58:32;;;;;;;1.40;1.00;;;17.00;99.90;;;;;;5048148;28;20401;-77
2021/05/27 13:01:01;;;;;;;1.30;0.90;;;17.00;99.90;;;;;;5046306;28;20499;-77
2021/05/27 13:03:30;;;;;;;1.43;0.90;;;17.00;99.90;;;;;;5033442;28;20474;-77
2021/05/27 13:06:07;;;;;;;1.30;1.00;;;17.00;99.90;;;;;;5027838;28;20475;-77
2021/05/27 13:08:36;;;;;;;1.67;1.00;;;16.60;99.90;;;;;;5045776;28;20912;-77
2021/05/27 13:11:28;;;;;;;0.90;0.63;;;16.00;99.90;;;;;;5039364;28;20410;-78
2021/05/27 13:13:59;;;;;;;0.90;0.57;;;15.00;99.90;;;;;;5038066;28;20486;-78
2021/05/27 13:16:38;;;;;;;1.37;0.73;;;14.70;99.90;;;;;;5037626;28;20449;-78
2021/05/27 13:19:07;;;;;;;1.63;0.70;;;14.30;99.90;;;;;;5032097;28;20411;-77
2021/05/27 13:21:41;;;;;;;1.97;0.90;;;14.10;99.90;;;;;;5043146;28;20431;-77
2021/05/27 13:24:24;;;;;;;2.13;1.50;;;13.80;99.90;;;;;;5047347;28;20387;-77